Time;durP1;ratioP1;P1;durP2;ratioP2;P2;SDS_P1;SDS_P2;PMS_P1;PMS_P2;Temp;Humidity;BMP_temperature;BMP_pressure;BME280_temperature;BME280_humidity;BME280_pressure;Samples;Min_cycle;Max_cycle;Signal;HPM_P1;HPM_P2
2022/04/08 00:01:25;;;;;;;8.10;2.00;;;10.00;99.90;;;;;;5014402;28;20030;-90
2022/04/08 00:03:54;;;;;;;11.23;2.00;;;10.00;99.90;;;;;;5013114;28;20032;-90
2022/04/08 00:06:21;;;;;;;7.72;2.00;;;10.00;99.90;;;;;;5012883;28;20068;-89
2022/04/08 00:08:47;;;;;;;8.57;2.35;;;10.00;99.90;;;;;;5012708;28;20022;-88
2022/04/08 00:11:13;;;;;;;10.40;2.00;;;10.10;99.90;;;;;;5014131;28;20026;-88
2022/04/08 00:13:39;;;;;;;6.65;1.67;;;10.00;99.90;;;;;;5014120;28;20050;-89
2022/04/08 00:16:05;;;;;;;6.93;1.70;;;10.00;99.90;;;;;;5013703;28;20453;-89
2022/04/08 00:18:31;;;;;;;8.70;1.60;;;10.10;99.90;;;;;;5013011;28;20037;-89
2022/04/08 00:20:57;;;;;;;6.00;1.70;;;10.00;99.90;;;;;;5012992;28;20025;-89
2022/04/08 00:23:23;;;;;;;5.13;1.30;;;10.00;99.90;;;;;;5012763;28;20034;-89
2022/04/08 00:25:48;;;;;;;10.07;1.92;;;10.00;99.90;;;;;;5012674;28;20022;-89
2022/04/08 00:28:14;;;;;;;5.32;1.80;;;10.00;99.90;;;;;;5012858;28;20076;-89
2022/04/08 00:30:40;;;;;;;7.32;1.70;;;10.00;99.90;;;;;;5012746;28;20022;-89
2022/04/08 00:33:05;;;;;;;8.57;1.33;;;10.00;99.90;;;;;;5012600;28;20385;-89
2022/04/08 00:35:31;;;;;;;6.68;1.63;;;10.00;99.90;;;;;;5012568;28;20029;-89
2022/04/08 00:37:57;;;;;;;7.60;1.50;;;10.00;99.90;;;;;;5013410;28;20033;-89
2022/04/08 00:40:23;;;;;;;6.90;1.60;;;10.00;99.90;;;;;;5014068;28;20524;-91
2022/04/08 00:42:49;;;;;;;8.15;1.75;;;10.00;99.90;;;;;;5012599;28;20064;-90
2022/04/08 00:45:15;;;;;;;6.55;1.40;;;10.00;99.90;;;;;;5012423;28;20061;-89
2022/04/08 00:47:41;;;;;;;5.65;1.90;;;10.00;99.90;;;;;;5012655;28;20048;-90
2022/04/08 00:50:11;;;;;;;4.13;1.42;;;10.00;99.90;;;;;;5012438;28;20021;-89
2022/04/08 00:52:39;;;;;;;6.88;1.52;;;10.00;99.90;;;;;;5013728;28;20046;-90
2022/04/08 00:55:06;;;;;;;5.82;1.35;;;10.00;99.90;;;;;;5013601;28;20112;-89
2022/04/08 00:57:33;;;;;;;5.45;1.65;;;9.90;99.90;;;;;;5013737;28;20029;-89
2022/04/08 01:00:07;;;;;;;7.97;1.40;;;9.90;99.90;;;;;;5012288;28;20060;-89
2022/04/08 01:02:33;;;;;;;9.68;1.45;;;9.90;99.90;;;;;;5012421;28;20386;-89
2022/04/08 01:04:58;;;;;;;8.82;2.13;;;9.90;99.90;;;;;;5012142;28;20084;-90
2022/04/08 01:07:24;;;;;;;5.68;1.20;;;9.90;99.90;;;;;;5012282;28;20091;-90
2022/04/08 01:09:51;;;;;;;6.97;1.50;;;9.90;99.90;;;;;;5016420;28;20104;-89
2022/04/08 01:12:17;;;;;;;4.10;1.42;;;9.90;99.90;;;;;;5017493;28;20026;-89
2022/04/08 01:14:43;;;;;;;7.97;1.30;;;9.90;99.90;;;;;;5016200;28;20022;-89
2022/04/08 01:17:09;;;;;;;7.50;1.25;;;9.90;99.90;;;;;;5017362;28;20428;-89
2022/04/08 01:19:34;;;;;;;6.43;1.27;;;9.90;99.90;;;;;;5017683;28;20030;-89
2022/04/08 01:22:00;;;;;;;6.95;1.25;;;9.90;99.90;;;;;;5016210;28;20018;-87
2022/04/08 01:24:28;;;;;;;5.20;1.25;;;9.90;99.90;;;;;;5017759;28;20072;-90
2022/04/08 01:26:54;;;;;;;8.35;1.90;;;9.90;99.90;;;;;;5017601;28;20033;-90
2022/04/08 01:29:20;;;;;;;9.85;1.60;;;9.90;99.90;;;;;;5017284;28;20022;-89
2022/04/08 01:31:46;;;;;;;6.22;1.30;;;9.90;99.90;;;;;;5016134;28;20088;-89
2022/04/08 01:34:14;;;;;;;6.78;1.45;;;9.90;99.90;;;;;;5015972;28;20022;-90
2022/04/08 01:36:41;;;;;;;9.73;2.42;;;9.90;99.90;;;;;;5017151;28;20022;-90
2022/04/08 01:39:07;;;;;;;6.75;1.40;;;9.90;99.90;;;;;;5016002;28;20034;-89
2022/04/08 01:41:32;;;;;;;3.95;1.17;;;9.90;99.90;;;;;;5017392;28;20033;-90
2022/04/08 01:43:59;;;;;;;7.72;1.67;;;9.90;99.90;;;;;;5015878;28;20116;-90
2022/04/08 01:46:25;;;;;;;8.00;1.52;;;9.90;99.90;;;;;;5015746;28;20505;-89
2022/04/08 01:48:54;;;;;;;5.10;1.38;;;9.90;99.90;;;;;;5015726;28;20064;-89
2022/04/08 01:51:23;;;;;;;7.28;1.40;;;9.90;99.90;;;;;;5015519;28;20399;-89
2022/04/08 01:53:50;;;;;;;6.82;1.33;;;9.80;99.90;;;;;;5015480;28;20057;-89
2022/04/08 01:56:16;;;;;;;6.43;1.30;;;9.90;99.90;;;;;;5015726;28;20034;-89
2022/04/08 01:58:42;;;;;;;6.30;1.30;;;9.80;99.90;;;;;;5016660;28;20033;-89
2022/04/08 02:01:07;;;;;;;5.85;1.38;;;9.80;99.90;;;;;;5016602;28;20022;-88
2022/04/08 02:03:33;;;;;;;6.65;1.20;;;9.80;99.90;;;;;;5015196;28;20076;-89
2022/04/08 02:05:59;;;;;;;5.93;1.67;;;9.80;99.90;;;;;;5016294;28;20026;-89
2022/04/08 02:08:25;;;;;;;6.07;1.52;;;9.80;99.90;;;;;;5015095;28;20045;-89
2022/04/08 02:10:53;;;;;;;5.53;1.10;;;9.80;99.90;;;;;;5016401;28;20025;-88
2022/04/08 02:13:19;;;;;;;5.18;1.30;;;9.80;99.90;;;;;;5016529;28;20021;-88
2022/04/08 02:15:46;;;;;;;4.97;1.10;;;9.80;99.90;;;;;;5014972;28;20041;-89
2022/04/08 02:18:12;;;;;;;4.43;1.25;;;9.80;99.90;;;;;;5016088;28;20018;-88
2022/04/08 02:20:38;;;;;;;3.58;1.02;;;9.80;99.90;;;;;;5014724;28;20032;-88
2022/04/08 02:23:05;;;;;;;8.20;1.88;;;9.80;99.90;;;;;;5014999;28;20389;-89
2022/04/08 02:25:31;;;;;;;6.35;1.77;;;9.80;99.90;;;;;;5014920;28;20026;-89
2022/04/08 02:27:57;;;;;;;7.88;1.45;;;9.80;99.90;;;;;;5014900;28;20029;-89
2022/04/08 02:30:23;;;;;;;6.43;1.52;;;9.80;99.90;;;;;;5014756;28;20026;-89
2022/04/08 02:32:48;;;;;;;6.88;1.33;;;9.80;99.90;;;;;;5014985;28;20482;-89
2022/04/08 02:35:14;;;;;;;4.88;1.55;;;9.80;99.90;;;;;;5014642;28;20041;-89
2022/04/08 02:37:40;;;;;;;4.93;1.50;;;9.80;99.90;;;;;;5014797;28;20536;-89
2022/04/08 02:40:06;;;;;;;5.68;1.02;;;9.80;99.90;;;;;;5016095;28;20088;-89
2022/04/08 02:42:32;;;;;;;4.65;1.25;;;9.80;99.90;;;;;;5014587;28;20053;-89
2022/04/08 02:44:58;;;;;;;8.13;1.30;;;9.80;99.90;;;;;;5014350;28;20026;-89
2022/04/08 02:47:24;;;;;;;6.43;1.20;;;9.80;99.90;;;;;;5014470;28;20024;-89
2022/04/08 02:49:50;;;;;;;4.63;1.20;;;9.80;99.90;;;;;;5014113;28;20026;-89
2022/04/08 02:52:16;;;;;;;5.70;1.20;;;9.80;99.90;;;;;;5015678;28;20030;-89
2022/04/08 02:54:42;;;;;;;6.10;1.23;;;9.80;99.90;;;;;;5014226;28;20034;-89
2022/04/08 02:57:07;;;;;;;5.30;1.20;;;9.80;99.90;;;;;;5014373;28;20491;-89
2022/04/08 02:59:33;;;;;;;3.42;1.20;;;9.80;99.90;;;;;;5014292;28;20477;-89
2022/04/08 03:01:59;;;;;;;4.05;1.10;;;9.80;99.90;;;;;;5014426;28;20473;-89
2022/04/08 03:04:25;;;;;;;4.85;1.40;;;9.80;99.90;;;;;;5014288;28;20033;-89
2022/04/08 03:06:55;;;;;;;3.35;1.20;;;9.70;99.90;;;;;;5013956;28;20168;-88
2022/04/08 03:09:21;;;;;;;7.00;1.55;;;9.80;99.90;;;;;;5015505;28;20021;-90
2022/04/08 03:11:47;;;;;;;4.43;1.10;;;9.70;99.90;;;;;;5015307;28;20034;-89
2022/04/08 03:14:13;;;;;;;4.95;1.23;;;9.70;99.90;;;;;;5014082;28;20037;-89
2022/04/08 03:16:39;;;;;;;6.65;1.38;;;9.70;99.90;;;;;;5013919;28;20393;-89
2022/04/08 03:19:04;;;;;;;4.93;1.10;;;9.70;99.90;;;;;;5015063;28;20022;-89
2022/04/08 03:21:30;;;;;;;6.50;1.00;;;9.70;99.90;;;;;;5013906;28;20032;-90
2022/04/08 03:23:57;;;;;;;7.28;1.60;;;9.70;99.90;;;;;;5013845;28;20047;-89
2022/04/08 03:26:24;;;;;;;6.05;1.77;;;9.70;99.90;;;;;;5013706;28;20040;-89
2022/04/08 03:28:49;;;;;;;6.38;1.63;;;9.70;99.90;;;;;;5013687;28;20025;-89
2022/04/08 03:31:15;;;;;;;7.88;1.33;;;9.70;99.90;;;;;;5013352;28;20026;-88
2022/04/08 03:33:41;;;;;;;4.65;1.15;;;9.70;99.90;;;;;;5013617;28;20119;-89
2022/04/08 03:36:07;;;;;;;5.22;1.33;;;9.70;99.90;;;;;;5013627;28;20480;-88
2022/04/08 03:38:33;;;;;;;4.38;1.00;;;9.70;99.90;;;;;;5014739;28;20029;-89
2022/04/08 03:40:59;;;;;;;5.43;1.15;;;9.70;99.90;;;;;;5013500;28;20026;-89
2022/04/08 03:43:24;;;;;;;5.03;1.00;;;9.70;99.90;;;;;;5013468;28;20457;-90
2022/04/08 03:45:50;;;;;;;4.80;1.13;;;9.70;99.90;;;;;;5013429;28;20385;-89
2022/04/08 03:48:16;;;;;;;5.63;1.30;;;9.70;99.90;;;;;;5013452;28;20514;-89
2022/04/08 03:50:41;;;;;;;3.30;1.10;;;9.70;99.90;;;;;;5013268;28;20058;-89
2022/04/08 03:53:10;;;;;;;8.43;1.25;;;9.70;99.90;;;;;;5013111;28;20132;-89
2022/04/08 03:55:36;;;;;;;5.65;1.10;;;9.70;99.90;;;;;;5013180;28;20029;-88
2022/04/08 03:58:02;;;;;;;6.35;1.00;;;9.70;99.90;;;;;;5013275;28;20025;-88
2022/04/08 04:00:27;;;;;;;4.68;1.10;;;9.70;99.90;;;;;;5013162;28;20092;-89
2022/04/08 04:02:53;;;;;;;4.47;1.13;;;9.70;99.90;;;;;;5013278;28;20397;-89
2022/04/08 04:05:19;;;;;;;6.65;1.20;;;9.70;99.90;;;;;;5012933;28;20076;-89
2022/04/08 04:07:45;;;;;;;6.70;1.30;;;9.60;99.90;;;;;;5013024;28;20080;-89
2022/04/08 04:10:14;;;;;;;5.28;1.27;;;9.70;99.90;;;;;;5012986;28;20117;-89
2022/04/08 04:12:41;;;;;;;4.57;1.13;;;9.70;99.90;;;;;;5012915;28;20109;-89
2022/04/08 04:15:08;;;;;;;5.43;1.25;;;9.70;99.90;;;;;;5014228;28;20049;-89
2022/04/08 04:17:34;;;;;;;6.45;1.42;;;9.70;99.90;;;;;;5012647;28;20049;-89
2022/04/08 04:20:00;;;;;;;4.45;1.10;;;9.70;99.90;;;;;;5012673;28;20072;-89
2022/04/08 04:22:26;;;;;;;7.50;1.15;;;9.70;99.90;;;;;;5014196;28;20033;-89
2022/04/08 04:24:51;;;;;;;6.60;1.63;;;9.60;99.90;;;;;;5012483;28;20386;-89
2022/04/08 04:27:17;;;;;;;5.57;1.23;;;9.60;99.90;;;;;;5012595;28;20022;-88
2022/04/08 04:29:43;;;;;;;2.85;1.00;;;9.60;99.90;;;;;;5013970;28;20084;-89
2022/04/08 04:32:09;;;;;;;6.60;1.48;;;9.60;99.90;;;;;;5012542;28;20026;-89
2022/04/08 04:34:36;;;;;;;7.55;1.23;;;9.60;99.90;;;;;;5012596;28;20021;-88
2022/04/08 04:37:08;;;;;;;6.25;1.33;;;9.60;99.90;;;;;;5012503;28;20541;-88
2022/04/08 04:39:34;;;;;;;5.22;1.42;;;9.60;99.90;;;;;;5012456;28;20398;-88
2022/04/08 04:42:00;;;;;;;5.28;1.15;;;9.60;99.90;;;;;;5012558;28;20026;-90
2022/04/08 04:44:27;;;;;;;3.60;1.00;;;9.60;99.90;;;;;;5011410;28;20022;-88
2022/04/08 04:46:54;;;;;;;6.55;1.30;;;9.60;99.90;;;;;;5013648;28;20026;-88
2022/04/08 04:49:21;;;;;;;7.72;1.42;;;9.60;99.90;;;;;;5013195;28;20515;-89
2022/04/08 04:51:46;;;;;;;3.95;0.90;;;9.60;99.90;;;;;;5013564;28;20519;-88
2022/04/08 04:54:12;;;;;;;3.67;1.00;;;9.60;99.90;;;;;;5012118;28;20125;-89
2022/04/08 04:56:37;;;;;;;5.85;1.48;;;9.60;99.90;;;;;;5012322;28;20026;-89
2022/04/08 04:59:03;;;;;;;5.78;1.55;;;9.60;99.90;;;;;;5013441;28;20038;-88
2022/04/08 05:01:29;;;;;;;5.28;1.40;;;9.60;99.90;;;;;;5012386;28;20034;-88
2022/04/08 05:03:54;;;;;;;4.63;1.25;;;9.60;99.90;;;;;;5012203;28;20113;-89
2022/04/08 05:06:20;;;;;;;8.00;1.48;;;9.60;99.90;;;;;;5013289;28;20030;-88
2022/04/08 05:08:46;;;;;;;5.55;1.25;;;9.60;99.90;;;;;;5013433;28;20076;-88
2022/04/08 05:11:11;;;;;;;4.18;0.88;;;9.60;99.90;;;;;;5012073;28;20029;-89
2022/04/08 05:13:37;;;;;;;5.28;1.20;;;9.60;99.90;;;;;;5013323;28;20024;-88
2022/04/08 05:16:03;;;;;;;3.90;0.93;;;9.60;99.90;;;;;;5011890;28;20374;-89
2022/04/08 05:18:29;;;;;;;4.88;0.95;;;9.60;99.90;;;;;;5012145;28;20026;-88
2022/04/08 05:20:54;;;;;;;5.70;0.98;;;9.60;99.90;;;;;;5012064;28;20065;-88
2022/04/08 05:23:20;;;;;;;4.60;1.13;;;9.60;99.90;;;;;;5012089;28;20030;-88
2022/04/08 05:25:46;;;;;;;3.78;1.02;;;9.60;99.90;;;;;;5013481;28;20053;-88
2022/04/08 05:28:12;;;;;;;7.75;1.70;;;9.60;99.90;;;;;;5013241;28;20022;-88
2022/04/08 05:30:38;;;;;;;6.20;1.00;;;9.60;99.90;;;;;;5011743;28;20104;-89
2022/04/08 05:33:04;;;;;;;4.88;1.25;;;9.60;99.90;;;;;;5011904;28;20026;-89
2022/04/08 05:35:30;;;;;;;3.53;1.02;;;9.60;99.90;;;;;;5011951;28;20034;-88
2022/04/08 05:37:55;;;;;;;5.38;1.20;;;9.60;99.90;;;;;;5011801;28;20061;-88
2022/04/08 05:40:24;;;;;;;4.38;1.13;;;9.60;99.90;;;;;;5011936;28;20029;-88
2022/04/08 05:42:50;;;;;;;2.85;0.90;;;9.60;99.90;;;;;;5013468;28;20033;-89
2022/04/08 05:45:18;;;;;;;2.83;0.90;;;9.60;99.90;;;;;;5012991;28;20022;-88
2022/04/08 05:47:47;;;;;;;8.20;1.50;;;9.60;99.90;;;;;;5011736;28;20363;-89
2022/04/08 05:50:13;;;;;;;8.05;1.38;;;9.60;99.90;;;;;;5012965;28;20105;-89
2022/04/08 05:52:40;;;;;;;5.47;1.40;;;9.60;99.90;;;;;;5011735;28;20042;-89
2022/04/08 05:55:06;;;;;;;5.88;1.20;;;9.60;99.90;;;;;;5014827;28;20026;-88
2022/04/08 05:57:41;;;;;;;3.58;1.33;;;9.60;99.90;;;;;;5015492;28;20030;-88
2022/04/08 06:00:10;;;;;;;3.72;1.15;;;9.60;99.90;;;;;;5015413;28;20057;-89
2022/04/08 06:02:37;;;;;;;4.82;1.30;;;9.60;99.90;;;;;;5015500;28;20034;-89
2022/04/08 06:05:03;;;;;;;5.57;1.60;;;9.60;99.90;;;;;;5015253;28;20496;-88
2022/04/08 06:07:29;;;;;;;5.43;1.20;;;9.60;99.90;;;;;;5016517;28;20026;-89
2022/04/08 06:09:56;;;;;;;4.40;1.25;;;9.60;99.90;;;;;;5015197;28;20021;-89
2022/04/08 06:12:22;;;;;;;3.33;1.08;;;9.60;99.90;;;;;;5016540;28;20026;-90
2022/04/08 06:14:47;;;;;;;7.25;1.40;;;9.60;99.90;;;;;;5016424;28;20045;-89
2022/04/08 06:17:13;;;;;;;4.60;1.00;;;9.60;99.90;;;;;;5015078;28;20022;-89
2022/04/08 06:19:39;;;;;;;4.03;1.10;;;9.60;99.90;;;;;;5015124;28;20444;-89
2022/04/08 06:22:04;;;;;;;4.32;1.20;;;9.60;99.90;;;;;;5015166;28;20390;-89
2022/04/08 06:24:30;;;;;;;5.75;1.80;;;9.60;99.90;;;;;;5014867;28;20018;-89
2022/04/08 06:26:56;;;;;;;6.35;2.00;;;9.60;99.90;;;;;;5015080;28;20022;-89
2022/04/08 06:29:21;;;;;;;6.10;1.70;;;9.60;99.90;;;;;;5014998;28;20022;-89
2022/04/08 06:31:47;;;;;;;5.50;1.65;;;9.60;99.90;;;;;;5016176;28;20026;-89
2022/04/08 06:34:13;;;;;;;4.00;1.33;;;9.60;99.90;;;;;;5014810;28;20037;-88
2022/04/08 06:36:38;;;;;;;6.63;1.60;;;9.60;99.90;;;;;;5016162;28;20127;-89
2022/04/08 06:39:05;;;;;;;3.45;1.10;;;9.60;99.90;;;;;;5014837;28;20030;-89
2022/04/08 06:41:31;;;;;;;8.55;1.48;;;9.60;99.90;;;;;;5014827;28;20045;-89
2022/04/08 06:43:58;;;;;;;9.05;1.42;;;9.50;99.90;;;;;;5016065;28;20034;-89
2022/04/08 06:46:23;;;;;;;3.88;1.35;;;9.60;99.90;;;;;;5015865;28;20029;-89
2022/04/08 06:48:49;;;;;;;5.00;1.55;;;9.50;99.90;;;;;;5014702;28;20021;-88
2022/04/08 06:51:16;;;;;;;4.35;1.15;;;9.50;99.90;;;;;;5015898;28;20109;-89
2022/04/08 06:53:42;;;;;;;4.30;1.45;;;9.50;99.90;;;;;;5014195;28;20044;-88
2022/04/08 06:56:07;;;;;;;5.35;1.40;;;9.50;99.90;;;;;;5014275;28;20413;-89
2022/04/08 06:58:38;;;;;;;6.47;1.30;;;9.50;99.90;;;;;;5014443;28;20033;-89
2022/04/08 07:01:07;;;;;;;4.45;1.48;;;9.50;99.90;;;;;;5014532;28;20060;-89
2022/04/08 07:03:34;;;;;;;4.68;1.20;;;9.50;99.90;;;;;;5014371;28;20030;-89
2022/04/08 07:06:00;;;;;;;4.55;1.20;;;9.50;99.90;;;;;;5014767;28;20448;-90
2022/04/08 07:08:25;;;;;;;3.85;1.30;;;9.50;99.90;;;;;;5015353;28;20100;-89
2022/04/08 07:10:51;;;;;;;4.15;1.40;;;9.50;99.90;;;;;;5014003;28;20026;-90
2022/04/08 07:13:16;;;;;;;5.07;1.38;;;9.50;99.90;;;;;;5015481;28;20473;-89
2022/04/08 07:15:42;;;;;;;4.70;1.20;;;9.50;99.90;;;;;;5014150;28;20029;-88
2022/04/08 07:18:08;;;;;;;3.20;1.40;;;9.50;99.90;;;;;;5014170;28;20125;-89
2022/04/08 07:20:34;;;;;;;4.03;1.23;;;9.50;99.90;;;;;;5015260;28;20108;-88
2022/04/08 07:23:03;;;;;;;5.00;1.20;;;9.50;99.90;;;;;;5013994;28;20048;-89
2022/04/08 07:25:29;;;;;;;5.60;1.27;;;9.50;99.90;;;;;;5013749;28;20548;-89
2022/04/08 07:28:01;;;;;;;3.83;1.20;;;9.50;99.90;;;;;;5014898;28;20102;-88
2022/04/08 07:30:27;;;;;;;3.78;1.17;;;9.50;99.90;;;;;;5013717;28;20034;-90
2022/04/08 07:32:54;;;;;;;3.28;1.10;;;9.50;99.90;;;;;;5015040;28;20029;-90
2022/04/08 07:35:25;;;;;;;3.53;1.30;;;9.50;99.90;;;;;;5013765;28;20072;-89
2022/04/08 07:37:51;;;;;;;1.95;0.90;;;9.50;99.90;;;;;;5013732;28;20025;-90
2022/04/08 07:40:17;;;;;;;3.80;1.20;;;9.50;99.90;;;;;;5013828;28;20026;-90
2022/04/08 07:42:43;;;;;;;3.70;1.20;;;9.50;99.90;;;;;;5013557;28;20400;-90
2022/04/08 07:45:09;;;;;;;2.35;1.20;;;9.50;99.90;;;;;;5014857;28;20029;-90
2022/04/08 07:47:35;;;;;;;4.90;1.42;;;9.60;99.90;;;;;;5013603;28;20045;-90
2022/04/08 07:50:05;;;;;;;3.92;1.02;;;9.60;99.90;;;;;;5014868;28;20018;-90
2022/04/08 07:52:31;;;;;;;3.58;1.00;;;9.50;99.90;;;;;;5014731;28;20029;-90
2022/04/08 07:54:57;;;;;;;1.92;1.00;;;9.60;99.90;;;;;;5013626;28;20029;-90
2022/04/08 07:57:23;;;;;;;3.45;1.10;;;9.60;99.90;;;;;;5013588;28;20038;-90
2022/04/08 07:59:49;;;;;;;2.92;1.10;;;9.60;99.90;;;;;;5013491;28;20026;-90
2022/04/08 08:02:15;;;;;;;2.83;1.17;;;9.60;99.90;;;;;;5013522;28;20026;-90
2022/04/08 08:04:41;;;;;;;2.78;1.45;;;9.60;99.90;;;;;;5013497;28;20083;-90
2022/04/08 08:07:07;;;;;;;5.00;1.08;;;9.60;99.90;;;;;;5013262;28;20121;-90
2022/04/08 08:09:36;;;;;;;2.05;1.00;;;9.60;99.90;;;;;;5013457;28;20100;-91
2022/04/08 08:12:03;;;;;;;3.33;1.13;;;9.60;99.90;;;;;;5013329;28;20022;-90
2022/04/08 08:14:29;;;;;;;3.95;1.02;;;9.60;99.90;;;;;;5013296;28;20033;-90
2022/04/08 08:16:55;;;;;;;3.75;1.17;;;9.60;99.90;;;;;;5013253;28;20029;-90
2022/04/08 08:19:20;;;;;;;2.13;0.90;;;9.70;99.90;;;;;;5012880;28;20469;-90
2022/04/08 08:21:46;;;;;;;1.65;1.02;;;9.60;99.90;;;;;;5013205;28;20508;-90
2022/04/08 08:24:12;;;;;;;3.10;1.33;;;9.60;99.90;;;;;;5013009;28;20036;-90
2022/04/08 08:26:38;;;;;;;2.88;1.00;;;9.70;99.90;;;;;;5012864;28;20453;-90
2022/04/08 08:29:04;;;;;;;2.83;0.93;;;9.70;99.90;;;;;;5013056;28;20021;-90
2022/04/08 08:31:30;;;;;;;3.67;1.17;;;9.70;99.90;;;;;;5013914;28;20018;-90
2022/04/08 08:33:55;;;;;;;2.08;1.10;;;9.70;99.90;;;;;;5012900;28;20025;-89
2022/04/08 08:36:22;;;;;;;1.80;0.90;;;9.70;99.90;;;;;;5012847;28;20029;-91
2022/04/08 08:38:48;;;;;;;2.22;0.80;;;9.70;99.90;;;;;;5014028;28;20021;-90
2022/04/08 08:41:14;;;;;;;1.20;0.70;;;9.70;99.90;;;;;;5013971;28;20040;-90
2022/04/08 08:43:40;;;;;;;3.00;0.95;;;9.60;99.90;;;;;;5012887;28;20026;-90
2022/04/08 08:46:07;;;;;;;3.40;1.20;;;9.60;99.90;;;;;;5012531;28;20033;-89
2022/04/08 08:48:37;;;;;;;2.45;1.02;;;9.70;99.90;;;;;;5012660;28;20133;-88
2022/04/08 08:51:05;;;;;;;2.35;0.80;;;9.60;99.90;;;;;;5013502;28;20014;-89
2022/04/08 08:53:34;;;;;;;3.72;0.77;;;9.30;99.90;;;;;;5013482;28;20041;-89
2022/04/08 08:56:04;;;;;;;1.77;0.82;;;9.20;99.90;;;;;;5012462;28;20025;-89
2022/04/08 08:58:29;;;;;;;5.00;0.80;;;9.20;99.90;;;;;;5012148;28;20393;-89
2022/04/08 09:00:56;;;;;;;4.25;0.70;;;9.30;99.90;;;;;;5012340;28;20018;-88
2022/04/08 09:03:29;;;;;;;4.25;0.90;;;9.30;99.90;;;;;;5012010;28;20447;-87
2022/04/08 09:06:06;;;;;;;1.65;0.60;;;9.40;99.90;;;;;;5013264;28;20025;-88
2022/04/08 09:08:36;;;;;;;1.42;0.55;;;9.50;99.90;;;;;;5012032;28;20058;-88
2022/04/08 09:11:04;;;;;;;2.33;0.70;;;9.50;99.90;;;;;;5012007;28;20076;-88
2022/04/08 09:13:30;;;;;;;1.13;0.60;;;9.50;99.90;;;;;;5012236;28;20056;-89
2022/04/08 09:15:59;;;;;;;2.03;0.80;;;9.50;99.90;;;;;;5012457;28;20477;-90
2022/04/08 09:18:30;;;;;;;2.20;0.88;;;9.60;99.90;;;;;;5012227;28;20026;-90
2022/04/08 09:20:57;;;;;;;3.50;0.80;;;9.60;99.90;;;;;;5012334;28;20061;-90
2022/04/08 09:23:23;;;;;;;1.38;0.60;;;9.60;99.90;;;;;;5012199;28;20022;-90
2022/04/08 09:25:57;;;;;;;2.65;0.68;;;9.60;99.90;;;;;;5013379;28;20461;-90
2022/04/08 09:28:23;;;;;;;4.97;0.60;;;9.70;99.90;;;;;;5013600;28;20030;-90
2022/04/08 09:30:55;;;;;;;2.58;0.60;;;9.60;99.90;;;;;;5015208;28;20049;-91
2022/04/08 09:33:23;;;;;;;2.20;0.60;;;9.60;99.90;;;;;;5017507;28;20018;-90
2022/04/08 09:35:50;;;;;;;1.60;0.60;;;9.60;99.90;;;;;;5016168;28;20092;-91
2022/04/08 09:38:20;;;;;;;1.17;0.50;;;9.60;99.90;;;;;;5017408;28;20033;-90
2022/04/08 09:40:49;;;;;;;1.90;0.63;;;9.60;99.90;;;;;;5015856;28;20117;-90
2022/04/08 09:43:16;;;;;;;2.20;0.60;;;9.60;99.90;;;;;;5015969;28;20454;-90
2022/04/08 09:45:43;;;;;;;1.58;0.50;;;9.60;99.90;;;;;;5015782;28;20026;-90
2022/04/08 09:48:09;;;;;;;1.63;0.65;;;9.60;99.90;;;;;;5015772;28;20029;-91
2022/04/08 09:50:37;;;;;;;1.58;0.63;;;9.60;99.90;;;;;;5016130;28;20022;-90
2022/04/08 09:53:04;;;;;;;1.25;0.57;;;9.60;99.90;;;;;;5015760;28;20045;-92
2022/04/08 09:55:30;;;;;;;1.40;0.60;;;9.60;99.90;;;;;;5015936;28;20034;-90
2022/04/08 09:57:58;;;;;;;2.15;0.60;;;9.60;99.90;;;;;;5015983;28;20468;-91
2022/04/08 10:00:25;;;;;;;1.55;0.60;;;9.50;99.90;;;;;;5016219;28;20026;-92
2022/04/08 10:02:54;;;;;;;1.88;0.60;;;9.50;99.90;;;;;;5015896;28;20033;-90
2022/04/08 10:05:22;;;;;;;2.92;0.70;;;9.60;99.90;;;;;;5015789;28;20389;-90
2022/04/08 10:07:52;;;;;;;2.35;0.50;;;9.60;99.90;;;;;;5017376;28;20018;-91
2022/04/08 10:10:55;;;;;;;1.52;0.60;;;9.60;99.90;;;;;;5016208;28;20153;-92
2022/04/08 10:13:31;;;;;;;1.80;0.60;;;9.60;99.90;;;;;;4966737;28;20034;-91
2022/04/08 10:15:57;;;;;;;0.70;0.40;;;9.60;99.90;;;;;;5015301;28;20072;-88
2022/04/08 10:18:39;;;;;;;1.95;0.70;;;9.60;99.90;;;;;;5015541;28;20546;-90
2022/04/08 10:21:04;;;;;;;2.35;0.60;;;9.60;99.90;;;;;;5015461;28;20091;-90
2022/04/08 10:23:36;;;;;;;2.50;0.50;;;9.50;99.90;;;;;;5014938;28;20429;-89
2022/04/08 10:26:04;;;;;;;1.25;0.70;;;9.50;99.90;;;;;;5014776;28;20036;-90
2022/04/08 10:28:37;;;;;;;1.92;0.50;;;9.50;99.90;;;;;;5016032;28;20457;-88
2022/04/08 10:31:23;;;;;;;1.13;0.70;;;9.50;99.90;;;;;;5014698;28;20026;-88
2022/04/08 10:33:55;;;;;;;1.63;0.80;;;9.50;99.90;;;;;;5014588;28;20088;-88
2022/04/08 10:36:43;;;;;;;2.20;0.82;;;9.50;99.90;;;;;;5014427;28;20030;-88
2022/04/08 10:39:23;;;;;;;1.23;0.73;;;9.50;99.90;;;;;;5015379;28;20112;-88
2022/04/08 10:41:53;;;;;;;2.13;0.90;;;9.50;99.90;;;;;;5015616;28;20053;-88
2022/04/08 10:44:39;;;;;;;1.83;0.95;;;9.50;99.90;;;;;;5014351;28;20074;-88
2022/04/08 10:47:16;;;;;;;1.55;1.05;;;9.50;99.90;;;;;;5015584;28;20034;-88
2022/04/08 10:49:51;;;;;;;2.95;0.82;;;9.50;99.90;;;;;;5014086;28;20579;-88
2022/04/08 10:52:22;;;;;;;2.88;0.80;;;9.50;99.90;;;;;;5015470;28;20366;-88
2022/04/08 10:54:49;;;;;;;3.40;0.80;;;9.50;99.90;;;;;;5014019;28;20049;-87
2022/04/08 10:57:14;;;;;;;1.92;0.80;;;9.50;99.90;;;;;;5015507;28;20036;-87
2022/04/08 10:59:51;;;;;;;1.52;0.82;;;9.50;99.90;;;;;;5015150;28;20021;-87
2022/04/08 11:02:17;;;;;;;2.83;0.70;;;9.50;99.90;;;;;;5013936;28;20021;-87
2022/04/08 11:04:43;;;;;;;1.83;0.75;;;9.50;99.90;;;;;;5013950;28;20030;-87
2022/04/08 11:07:09;;;;;;;2.38;0.80;;;9.50;99.90;;;;;;5014154;28;20026;-87
2022/04/08 11:09:35;;;;;;;1.17;0.63;;;9.50;99.90;;;;;;5013673;28;20030;-87
2022/04/08 11:12:01;;;;;;;1.25;0.70;;;9.50;99.90;;;;;;5015137;28;20022;-86
2022/04/08 11:14:29;;;;;;;2.42;0.70;;;9.50;99.90;;;;;;5014886;28;20026;-86
2022/04/08 11:16:55;;;;;;;1.98;0.80;;;9.50;99.90;;;;;;5013475;28;20026;-86
2022/04/08 11:19:22;;;;;;;1.52;0.80;;;9.50;99.90;;;;;;5014049;28;20497;-86
2022/04/08 11:21:51;;;;;;;1.65;0.80;;;9.50;99.90;;;;;;5013546;28;20396;-86
2022/04/08 11:24:18;;;;;;;1.40;0.80;;;9.50;99.90;;;;;;5014776;28;20018;-86
2022/04/08 11:26:48;;;;;;;1.23;0.85;;;9.50;99.90;;;;;;5013321;28;20034;-86
2022/04/08 11:29:27;;;;;;;1.00;0.68;;;9.50;99.90;;;;;;5013338;28;20026;-86
2022/04/08 11:32:09;;;;;;;1.70;0.80;;;9.50;99.90;;;;;;5013360;28;20022;-86
2022/04/08 11:34:35;;;;;;;0.90;0.60;;;9.50;99.90;;;;;;5013300;28;20028;-86
2022/04/08 11:37:00;;;;;;;1.17;0.80;;;9.50;99.90;;;;;;5013207;28;20022;-86
2022/04/08 11:39:27;;;;;;;1.20;0.70;;;9.50;99.90;;;;;;5013157;28;20044;-86
2022/04/08 11:41:54;;;;;;;1.88;0.80;;;9.50;99.90;;;;;;5013101;28;20084;-86
2022/04/08 11:44:21;;;;;;;1.60;0.85;;;9.50;99.90;;;;;;5013032;28;20030;-86
2022/04/08 11:46:46;;;;;;;1.73;0.75;;;9.50;99.90;;;;;;5012951;28;20444;-86
2022/04/08 11:49:13;;;;;;;2.53;0.90;;;9.50;99.90;;;;;;5014134;28;20022;-86
2022/04/08 11:51:38;;;;;;;1.20;0.82;;;9.50;99.90;;;;;;5012792;28;20470;-86
2022/04/08 11:54:04;;;;;;;0.75;0.60;;;9.50;99.90;;;;;;5012164;28;20052;-86
2022/04/08 11:56:33;;;;;;;1.05;0.60;;;9.50;99.90;;;;;;5012812;28;20022;-86
2022/04/08 11:59:00;;;;;;;0.65;0.52;;;9.50;99.90;;;;;;5012861;28;20037;-87
2022/04/08 12:01:33;;;;;;;0.90;0.50;;;9.50;99.90;;;;;;5012771;28;20037;-85
2022/04/08 12:04:01;;;;;;;1.17;0.65;;;9.50;99.90;;;;;;5012673;28;20486;-86
2022/04/08 12:06:47;;;;;;;1.15;0.50;;;9.50;99.90;;;;;;5012582;28;20482;-86
2022/04/08 12:09:15;;;;;;;1.98;0.80;;;9.50;99.90;;;;;;5013959;28;20429;-85
2022/04/08 12:11:43;;;;;;;1.85;0.77;;;9.50;99.90;;;;;;5012579;28;20021;-85
2022/04/08 12:14:09;;;;;;;0.90;0.70;;;9.50;99.90;;;;;;5012412;28;20029;-85
2022/04/08 12:16:39;;;;;;;1.58;0.70;;;9.50;99.90;;;;;;5012533;28;20033;-86
2022/04/08 12:19:08;;;;;;;0.98;0.70;;;9.50;99.90;;;;;;5012486;28;20075;-85
2022/04/08 12:21:34;;;;;;;1.55;0.60;;;9.50;99.90;;;;;;5012505;28;20061;-86
2022/04/08 12:24:01;;;;;;;1.25;0.80;;;9.50;99.90;;;;;;5012423;28;20060;-86
2022/04/08 12:26:32;;;;;;;1.05;0.70;;;9.50;99.90;;;;;;5012322;28;20057;-86
2022/04/08 12:29:08;;;;;;;1.83;0.77;;;9.50;99.90;;;;;;5012372;28;20061;-85
2022/04/08 12:31:47;;;;;;;0.65;0.50;;;9.50;99.90;;;;;;5012273;28;20532;-86
2022/04/08 12:34:14;;;;;;;1.83;0.70;;;9.50;99.90;;;;;;5012274;28;20053;-85
2022/04/08 12:36:44;;;;;;;3.47;0.90;;;9.50;99.90;;;;;;5012499;28;20025;-85
2022/04/08 12:39:11;;;;;;;1.95;0.80;;;9.50;99.90;;;;;;5012150;28;20026;-85
2022/04/08 12:41:45;;;;;;;1.27;0.90;;;9.50;99.90;;;;;;5012110;28;20551;-85
2022/04/08 12:44:11;;;;;;;1.88;0.90;;;9.50;99.90;;;;;;5012687;28;20030;-85
2022/04/08 12:46:37;;;;;;;1.52;0.90;;;9.50;99.90;;;;;;5013215;28;20496;-85
2022/04/08 12:49:07;;;;;;;1.60;0.80;;;9.50;99.90;;;;;;5012054;28;20113;-85
2022/04/08 12:51:34;;;;;;;1.95;1.20;;;9.40;99.90;;;;;;5011977;28;20025;-85
2022/04/08 12:54:00;;;;;;;1.63;1.10;;;9.40;99.90;;;;;;5012021;28;20042;-85
2022/04/08 12:56:26;;;;;;;1.23;0.90;;;9.40;99.90;;;;;;5011959;28;20026;-85